Time;durP1;ratioP1;P1;durP2;ratioP2;P2;SDS_P1;SDS_P2;PMS_P1;PMS_P2;Temp;Humidity;BMP_temperature;BMP_pressure;BME280_temperature;BME280_humidity;BME280_pressure;Samples;Min_cycle;Max_cycle;Signal;HPM_P1;HPM_P2
2023/04/19 00:00:46;;;;;;;25.10;17.92;;;11.20;99.90;;;;;;4898026;29;20039;-80
2023/04/19 00:03:13;;;;;;;25.73;18.40;;;11.20;99.90;;;;;;4897859;29;20089;-76
2023/04/19 00:05:40;;;;;;;25.08;17.45;;;11.10;99.90;;;;;;4897774;29;20024;-76
2023/04/19 00:08:07;;;;;;;28.80;19.20;;;11.00;99.90;;;;;;4897820;29;20036;-78
2023/04/19 00:10:37;;;;;;;24.83;17.48;;;11.00;99.90;;;;;;4898097;29;20020;-78
2023/04/19 00:13:03;;;;;;;28.08;18.05;;;11.00;99.90;;;;;;4898087;29;20033;-77
2023/04/19 00:15:29;;;;;;;31.75;19.65;;;11.00;99.90;;;;;;4896806;29;20115;-79
2023/04/19 00:17:55;;;;;;;24.77;18.08;;;11.00;99.90;;;;;;4898368;29;20040;-77
2023/04/19 00:20:21;;;;;;;27.48;17.42;;;11.00;99.90;;;;;;4897338;29;20079;-77
2023/04/19 00:22:47;;;;;;;23.63;16.40;;;11.10;99.90;;;;;;4897920;29;20028;-77
2023/04/19 00:25:13;;;;;;;27.20;18.65;;;11.10;99.90;;;;;;4897677;29;20028;-79
2023/04/19 00:27:39;;;;;;;26.27;18.35;;;11.10;99.90;;;;;;4897697;29;20169;-74
2023/04/19 00:30:05;;;;;;;25.33;17.80;;;11.10;99.90;;;;;;4897355;29;20028;-73
2023/04/19 00:32:31;;;;;;;25.05;17.58;;;11.10;99.90;;;;;;4896890;29;20418;-76
2023/04/19 00:34:57;;;;;;;28.63;18.27;;;11.20;99.90;;;;;;4877965;29;20051;-80
2023/04/19 00:37:23;;;;;;;24.52;16.80;;;11.20;99.90;;;;;;4892048;29;20106;-78
2023/04/19 00:39:49;;;;;;;29.13;18.60;;;11.20;99.90;;;;;;4896587;29;20039;-80
2023/04/19 00:42:14;;;;;;;27.63;18.20;;;11.20;99.90;;;;;;4897428;29;20112;-79
2023/04/19 00:44:41;;;;;;;26.70;18.38;;;11.10;99.90;;;;;;4877534;29;20123;-78
2023/04/19 00:47:08;;;;;;;26.52;18.15;;;11.10;99.90;;;;;;4881492;29;20096;-80
2023/04/19 00:49:33;;;;;;;24.63;17.15;;;11.10;99.90;;;;;;4897064;29;20032;-81
2023/04/19 00:51:59;;;;;;;30.17;19.25;;;11.10;99.90;;;;;;4896645;29;20041;-80
2023/04/19 00:54:28;;;;;;;27.50;18.63;;;11.10;99.90;;;;;;4897316;29;20032;-79
2023/04/19 00:56:55;;;;;;;24.83;17.08;;;11.10;99.90;;;;;;4879796;29;20238;-82
2023/04/19 00:59:23;;;;;;;26.02;18.63;;;11.00;99.90;;;;;;4897179;29;20035;-80
2023/04/19 01:01:49;;;;;;;25.45;17.83;;;11.00;99.90;;;;;;4879112;29;20036;-77
2023/04/19 01:04:16;;;;;;;24.73;17.33;;;11.00;99.90;;;;;;4896908;29;20036;-81
2023/04/19 01:06:42;;;;;;;24.83;16.58;;;11.00;99.90;;;;;;4880258;29;20020;-76
2023/04/19 01:09:10;;;;;;;24.80;16.67;;;11.00;99.90;;;;;;4880189;29;20123;-78
2023/04/19 01:11:39;;;;;;;27.75;17.08;;;10.90;99.90;;;;;;4880377;29;20392;-80
2023/04/19 01:14:05;;;;;;;30.05;17.02;;;10.90;99.90;;;;;;4881580;29;20041;-82
2023/04/19 01:16:32;;;;;;;24.83;15.95;;;10.90;99.90;;;;;;4896903;29;20032;-80
2023/04/19 01:18:58;;;;;;;25.00;17.15;;;10.90;99.90;;;;;;4897808;29;20556;-80
2023/04/19 01:21:25;;;;;;;27.02;17.27;;;10.90;99.90;;;;;;4897772;29;20088;-81
2023/04/19 01:23:51;;;;;;;27.42;18.67;;;10.90;99.90;;;;;;4881257;29;20044;-75
2023/04/19 01:26:18;;;;;;;26.35;19.90;;;10.90;99.90;;;;;;4880948;29;20024;-79
2023/04/19 01:28:43;;;;;;;26.63;18.15;;;10.90;99.90;;;;;;4898458;29;20029;-82
2023/04/19 01:31:09;;;;;;;27.40;18.20;;;10.90;99.90;;;;;;4880551;29;20370;-82
2023/04/19 01:33:38;;;;;;;27.35;19.08;;;10.90;99.90;;;;;;4882215;29;20572;-80
2023/04/19 01:36:08;;;;;;;27.13;19.45;;;10.90;99.90;;;;;;4884941;29;20028;-76
2023/04/19 01:38:34;;;;;;;30.05;21.25;;;11.00;99.90;;;;;;4896995;29;20044;-76
2023/04/19 01:41:00;;;;;;;32.17;19.80;;;11.00;99.90;;;;;;4894342;29;20104;-80
2023/04/19 01:43:26;;;;;;;27.15;17.70;;;11.00;99.90;;;;;;4896821;29;20056;-79
2023/04/19 01:45:52;;;;;;;27.45;20.17;;;11.00;99.90;;;;;;4901714;29;20039;-81
2023/04/19 01:48:18;;;;;;;26.02;19.20;;;11.00;99.90;;;;;;4887134;29;20112;-81
2023/04/19 01:50:44;;;;;;;28.55;19.17;;;11.10;99.90;;;;;;4897207;29;20119;-80
2023/04/19 01:53:10;;;;;;;30.75;18.35;;;11.10;99.90;;;;;;4879125;29;20139;-80
2023/04/19 01:55:36;;;;;;;30.40;19.02;;;11.20;99.90;;;;;;4878659;29;20041;-79
2023/04/19 01:58:02;;;;;;;26.13;19.20;;;11.20;99.90;;;;;;4895667;29;20032;-80
2023/04/19 02:00:28;;;;;;;25.45;17.85;;;11.20;99.90;;;;;;4878113;29;20024;-81
2023/04/19 02:02:53;;;;;;;26.35;18.50;;;11.30;99.90;;;;;;4881368;29;20101;-75
2023/04/19 02:05:20;;;;;;;21.63;16.27;;;11.30;99.90;;;;;;4878941;29;20031;-78
2023/04/19 02:07:46;;;;;;;22.80;15.68;;;11.30;99.90;;;;;;4878407;29;20044;-80
2023/04/19 02:10:12;;;;;;;24.95;17.40;;;11.30;99.90;;;;;;4894399;29;20025;-78
2023/04/19 02:12:40;;;;;;;22.52;15.98;;;11.30;99.90;;;;;;4880501;29;20032;-79
2023/04/19 02:15:07;;;;;;;24.10;17.92;;;11.30;99.90;;;;;;4879527;29;20028;-79
2023/04/19 02:17:34;;;;;;;24.20;17.42;;;11.30;99.90;;;;;;4880402;29;20029;-82
2023/04/19 02:20:00;;;;;;;25.50;17.70;;;11.20;99.90;;;;;;4897805;29;20044;-76
2023/04/19 02:22:26;;;;;;;25.48;17.42;;;11.30;99.90;;;;;;4876526;29;20063;-82
2023/04/19 02:24:52;;;;;;;24.30;16.75;;;11.20;99.90;;;;;;4892222;29;20039;-81
2023/04/19 02:27:18;;;;;;;24.77;17.05;;;11.20;99.90;;;;;;4890611;29;20029;-78
2023/04/19 02:29:44;;;;;;;28.63;16.40;;;11.20;99.90;;;;;;4884689;29;20264;-81
2023/04/19 02:32:13;;;;;;;25.02;16.92;;;11.30;99.90;;;;;;4867401;29;20044;-82
2023/04/19 02:34:39;;;;;;;23.10;17.10;;;11.30;99.90;;;;;;4886794;29;20413;-74
2023/04/19 02:37:05;;;;;;;23.20;16.73;;;11.30;99.90;;;;;;4891494;29;20037;-80
2023/04/19 02:39:31;;;;;;;24.33;17.00;;;11.30;99.90;;;;;;4890042;29;20516;-79
2023/04/19 02:41:56;;;;;;;24.58;16.80;;;11.30;99.90;;;;;;4885015;29;20029;-75
2023/04/19 02:44:22;;;;;;;27.25;18.65;;;11.40;99.90;;;;;;4893238;29;20103;-80
2023/04/19 02:46:52;;;;;;;26.02;17.40;;;11.40;99.90;;;;;;4887405;29;20060;-78
2023/04/19 02:49:18;;;;;;;22.30;16.60;;;11.40;99.90;;;;;;4881469;29;20039;-77
2023/04/19 02:51:45;;;;;;;25.63;17.40;;;11.40;99.90;;;;;;4880929;29;20127;-80
2023/04/19 02:54:12;;;;;;;24.75;17.05;;;11.50;99.90;;;;;;4881097;29;20063;-77
2023/04/19 02:56:40;;;;;;;24.45;16.73;;;11.50;99.90;;;;;;4881034;29;20493;-78
2023/04/19 02:59:06;;;;;;;27.25;19.08;;;11.50;99.90;;;;;;4881091;29;20047;-79
2023/04/19 03:01:32;;;;;;;28.55;19.40;;;11.50;99.90;;;;;;4880930;29;20093;-81
2023/04/19 03:04:01;;;;;;;29.38;19.70;;;11.50;99.90;;;;;;4897661;29;20067;-79
2023/04/19 03:06:27;;;;;;;27.65;18.25;;;11.50;99.90;;;;;;4881195;29;20056;-79
2023/04/19 03:08:53;;;;;;;29.73;19.77;;;11.60;99.90;;;;;;4879305;29;20861;-79
2023/04/19 03:11:19;;;;;;;30.73;20.08;;;11.50;99.90;;;;;;4880357;29;20036;-76
2023/04/19 03:13:46;;;;;;;27.63;18.33;;;11.50;99.90;;;;;;4864244;29;20151;-76
2023/04/19 03:16:13;;;;;;;28.42;20.23;;;11.50;99.90;;;;;;4891375;29;20033;-78
2023/04/19 03:18:40;;;;;;;27.70;20.58;;;11.50;99.90;;;;;;4879602;29;20074;-79
2023/04/19 03:21:08;;;;;;;28.10;19.98;;;11.50;99.90;;;;;;4897768;29;20108;-79
2023/04/19 03:23:54;;;;;;;28.55;19.73;;;11.40;99.90;;;;;;4897065;29;20501;-74
2023/04/19 03:26:21;;;;;;;26.95;19.52;;;11.40;99.90;;;;;;4880499;29;20503;-78
2023/04/19 03:28:51;;;;;;;27.80;17.92;;;11.40;99.90;;;;;;4880581;29;20029;-79
2023/04/19 03:31:19;;;;;;;30.05;19.38;;;11.40;99.90;;;;;;4896837;29;20045;-74
2023/04/19 03:33:48;;;;;;;30.55;20.17;;;11.40;99.90;;;;;;4877600;29;20033;-79
2023/04/19 03:36:15;;;;;;;32.15;20.00;;;11.40;99.90;;;;;;4864031;29;20031;-78
2023/04/19 03:38:43;;;;;;;26.80;18.98;;;11.40;99.90;;;;;;4863670;29;20036;-72
2023/04/19 03:41:23;;;;;;;32.33;19.83;;;11.40;99.90;;;;;;4880218;29;20057;-74
2023/04/19 03:43:57;;;;;;;25.88;17.40;;;11.40;99.90;;;;;;4879758;29;20275;-78
2023/04/19 03:46:24;;;;;;;28.95;19.25;;;11.50;99.90;;;;;;4880128;29;20515;-78
2023/04/19 03:48:51;;;;;;;27.25;18.55;;;11.40;99.90;;;;;;4879792;29;20047;-76
2023/04/19 03:51:18;;;;;;;27.92;18.98;;;11.40;99.90;;;;;;4896735;29;20020;-79
2023/04/19 03:53:44;;;;;;;29.77;18.77;;;11.40;99.90;;;;;;4897198;29;20039;-78
2023/04/19 03:56:10;;;;;;;31.00;20.02;;;11.40;99.90;;;;;;4879685;29;20032;-74
2023/04/19 03:58:36;;;;;;;30.00;20.73;;;11.40;99.90;;;;;;4895056;29;20037;-75
2023/04/19 04:01:07;;;;;;;26.85;18.38;;;11.40;99.90;;;;;;4879341;29;20033;-78
2023/04/19 04:03:34;;;;;;;32.13;19.50;;;11.40;99.90;;;;;;4875723;29;20048;-79
2023/04/19 04:06:02;;;;;;;27.70;18.92;;;11.50;99.90;;;;;;4880739;29;20021;-79
2023/04/19 04:08:28;;;;;;;25.92;17.48;;;11.50;99.90;;;;;;4880327;29;20024;-79
2023/04/19 04:10:54;;;;;;;31.15;19.92;;;11.50;99.90;;;;;;4895695;29;20085;-78
2023/04/19 04:13:20;;;;;;;27.67;20.20;;;11.50;99.90;;;;;;4878752;29;20041;-77
2023/04/19 04:16:02;;;;;;;32.08;19.20;;;11.50;99.90;;;;;;4852775;29;20104;-81
2023/04/19 04:18:28;;;;;;;28.20;18.05;;;11.50;99.90;;;;;;4878300;29;20024;-78
2023/04/19 04:20:54;;;;;;;27.83;19.13;;;11.50;99.90;;;;;;4879992;29;20032;-75
2023/04/19 04:23:20;;;;;;;29.38;19.83;;;11.50;99.90;;;;;;4880218;29;20047;-78
2023/04/19 04:25:58;;;;;;;30.13;19.42;;;11.50;99.90;;;;;;4881050;29;20402;-76
2023/04/19 04:28:27;;;;;;;29.63;19.20;;;11.50;99.90;;;;;;4869747;29;20060;-78
2023/04/19 04:30:58;;;;;;;27.90;19.25;;;11.50;99.90;;;;;;4897656;29;20513;-76
2023/04/19 04:33:25;;;;;;;28.67;19.23;;;11.50;99.90;;;;;;4879913;29;20036;-72
2023/04/19 04:35:52;;;;;;;27.50;19.13;;;11.60;99.90;;;;;;4897376;29;20029;-79
2023/04/19 04:38:21;;;;;;;31.23;18.75;;;11.50;99.90;;;;;;4880573;29;20040;-72
2023/04/19 04:40:54;;;;;;;23.98;16.55;;;11.50;99.90;;;;;;4880143;29;20028;-80
2023/04/19 04:43:21;;;;;;;;;;;11.60;99.90;;;;;;4865498;29;20028;-79
2023/04/19 04:45:47;;;;;;;24.27;15.75;;;11.70;99.90;;;;;;4880448;29;19908;-79
2023/04/19 04:48:14;;;;;;;24.60;16.88;;;11.70;99.90;;;;;;4880129;29;20029;-74
2023/04/19 04:50:41;;;;;;;24.83;16.05;;;11.70;99.90;;;;;;4902744;29;20032;-79
2023/04/19 04:53:06;;;;;;;25.73;17.08;;;11.70;99.90;;;;;;4885488;29;20033;-80
2023/04/19 04:55:33;;;;;;;27.08;17.95;;;11.70;99.90;;;;;;4880776;29;20430;-78
2023/04/19 04:58:00;;;;;;;29.08;15.60;;;11.80;99.90;;;;;;4880392;29;20060;-79
2023/04/19 05:00:34;;;;;;;21.30;14.30;;;11.80;99.90;;;;;;4880366;29;20033;-80
2023/04/19 05:03:06;;;;;;;25.30;16.43;;;11.80;99.90;;;;;;4880215;29;20035;-81
2023/04/19 05:05:37;;;;;;;25.73;15.02;;;11.70;99.90;;;;;;4880875;29;20040;-78
2023/04/19 05:08:03;;;;;;;26.10;16.23;;;11.80;99.90;;;;;;4880511;29;20051;-78
2023/04/19 05:10:30;;;;;;;20.95;13.55;;;11.80;99.90;;;;;;4880195;29;20124;-75
2023/04/19 05:12:56;;;;;;;24.45;15.77;;;11.80;99.90;;;;;;4880208;29;20028;-79
2023/04/19 05:15:22;;;;;;;22.75;14.57;;;11.80;99.90;;;;;;4877024;29;20067;-79
2023/04/19 05:17:51;;;;;;;23.92;14.52;;;11.90;99.90;;;;;;4876510;29;20122;-80
2023/04/19 05:20:19;;;;;;;21.65;14.35;;;11.90;99.90;;;;;;4879894;29;20056;-79
2023/04/19 05:22:48;;;;;;;21.85;12.93;;;11.80;99.90;;;;;;4894643;29;20064;-80
2023/04/19 05:25:14;;;;;;;21.05;13.77;;;11.90;99.90;;;;;;4879750;29;20210;-81
2023/04/19 05:27:40;;;;;;;20.23;12.98;;;11.90;99.90;;;;;;4880226;29;20056;-78
2023/04/19 05:30:08;;;;;;;20.77;11.95;;;11.90;99.90;;;;;;4880149;29;20033;-76
2023/04/19 05:32:38;;;;;;;18.17;11.57;;;11.90;99.90;;;;;;4879740;29;20039;-78
2023/04/19 05:35:05;;;;;;;21.25;13.45;;;11.90;99.90;;;;;;4879098;29;20083;-78
2023/04/19 05:37:31;;;;;;;21.15;12.43;;;12.00;99.90;;;;;;4879955;29;20017;-76
2023/04/19 05:39:58;;;;;;;22.35;13.40;;;12.10;99.90;;;;;;4879794;29;20520;-79
2023/04/19 05:42:24;;;;;;;19.25;11.80;;;12.20;99.90;;;;;;4896591;29;20491;-79
2023/04/19 05:44:50;;;;;;;20.67;12.40;;;12.20;99.90;;;;;;4879867;29;20036;-78
2023/04/19 05:47:16;;;;;;;18.45;12.15;;;12.30;99.90;;;;;;4873327;29;20056;-78
2023/04/19 05:50:02;;;;;;;17.38;9.48;;;12.40;99.90;;;;;;4879622;29;20621;-78
2023/04/19 05:52:36;;;;;;;19.80;10.52;;;12.60;99.90;;;;;;4878107;29;20025;-78
2023/04/19 05:55:03;;;;;;;14.20;8.38;;;12.70;99.90;;;;;;4895107;29;20048;-76
2023/04/19 05:57:32;;;;;;;15.35;8.82;;;12.70;99.90;;;;;;4874777;29;20496;-77
2023/04/19 05:59:58;;;;;;;12.95;8.13;;;12.80;99.90;;;;;;4879597;29;20040;-78
2023/04/19 06:02:28;;;;;;;16.92;8.32;;;12.90;99.90;;;;;;4894908;29;20026;-77
2023/04/19 06:04:54;;;;;;;14.05;7.55;;;13.10;99.90;;;;;;4890196;29;20039;-77
2023/04/19 06:07:19;;;;;;;10.38;6.47;;;13.20;99.90;;;;;;4886129;29;20063;-72
2023/04/19 06:09:45;;;;;;;14.57;6.82;;;13.20;99.90;;;;;;4891683;29;20036;-75
2023/04/19 06:12:11;;;;;;;14.45;7.40;;;13.20;99.90;;;;;;4879590;29;20434;-78
2023/04/19 06:14:37;;;;;;;11.98;6.70;;;13.30;99.90;;;;;;4898082;29;20047;-76
2023/04/19 06:17:03;;;;;;;13.60;6.68;;;13.20;99.90;;;;;;4898059;29;20115;-73
2023/04/19 06:19:29;;;;;;;13.13;6.72;;;13.10;99.90;;;;;;4884690;29;20145;-77
2023/04/19 06:21:55;;;;;;;14.50;6.78;;;13.10;99.90;;;;;;4898724;29;20484;-78
2023/04/19 06:24:21;;;;;;;13.43;6.65;;;13.10;99.90;;;;;;4894662;29;20470;-77
2023/04/19 06:26:48;;;;;;;13.65;7.20;;;13.10;99.90;;;;;;4898810;29;20036;-77
2023/04/19 06:29:14;;;;;;;10.35;5.80;;;13.10;99.90;;;;;;4898414;29;20067;-73
2023/04/19 06:31:40;;;;;;;11.13;6.38;;;13.10;99.90;;;;;;4898554;29;20060;-77
2023/04/19 06:34:06;;;;;;;13.35;6.22;;;13.10;99.90;;;;;;4899489;29;20040;-78
2023/04/19 06:36:32;;;;;;;9.40;4.85;;;12.90;99.90;;;;;;4897800;29;20027;-76
2023/04/19 06:38:58;;;;;;;12.95;6.00;;;12.90;99.90;;;;;;4899500;29;20040;-73
2023/04/19 06:41:23;;;;;;;10.43;5.90;;;13.00;99.90;;;;;;4899317;29;20032;-73
2023/04/19 06:43:49;;;;;;;8.93;5.28;;;12.90;99.90;;;;;;4899432;29;20079;-76
2023/04/19 06:46:15;;;;;;;9.77;5.65;;;13.00;99.90;;;;;;4894518;29;20481;-78
2023/04/19 06:48:41;;;;;;;8.95;4.95;;;13.00;99.90;;;;;;4891916;29;20051;-77
2023/04/19 06:51:07;;;;;;;9.27;5.22;;;13.10;99.90;;;;;;4899301;29;20388;-77
2023/04/19 06:53:33;;;;;;;11.52;5.65;;;13.10;99.90;;;;;;4897667;29;20037;-73
2023/04/19 06:56:00;;;;;;;9.63;4.97;;;13.20;99.90;;;;;;4898804;29;20025;-74
2023/04/19 06:58:26;;;;;;;9.65;5.28;;;13.40;99.90;;;;;;4897732;29;20123;-77
2023/04/19 07:00:52;;;;;;;8.15;4.45;;;13.40;99.90;;;;;;4897780;29;20029;-77
2023/04/19 07:03:18;;;;;;;15.13;5.25;;;13.40;99.90;;;;;;4898908;29;20032;-77
2023/04/19 07:05:44;;;;;;;9.88;5.13;;;13.60;99.90;;;;;;4881677;29;20033;-76
2023/04/19 07:08:10;;;;;;;7.32;4.65;;;13.60;99.90;;;;;;4898918;29;20381;-77
2023/04/19 07:10:36;;;;;;;15.77;5.78;;;13.60;99.90;;;;;;4891774;29;20174;-77
2023/04/19 07:13:01;;;;;;;7.75;5.13;;;13.80;99.90;;;;;;4898896;29;20493;-72
2023/04/19 07:15:27;;;;;;;8.88;5.00;;;13.90;99.90;;;;;;4898622;29;20040;-77
2023/04/19 07:17:53;;;;;;;10.07;5.30;;;13.90;99.90;;;;;;4898554;29;20028;-77
2023/04/19 07:20:20;;;;;;;8.23;4.03;;;13.90;99.90;;;;;;4898114;29;20083;-73
2023/04/19 07:22:46;;;;;;;12.98;5.32;;;13.80;99.90;;;;;;4898409;29;20057;-77
2023/04/19 07:25:12;;;;;;;9.88;4.97;;;14.00;99.90;;;;;;4895223;29;20025;-76
2023/04/19 07:27:38;;;;;;;13.38;5.13;;;14.10;99.90;;;;;;4892591;29;20036;-75
2023/04/19 07:30:05;;;;;;;9.55;4.63;;;14.10;99.90;;;;;;4894964;29;20418;-77
2023/04/19 07:32:31;;;;;;;9.90;4.45;;;14.00;99.90;;;;;;4891573;29;20042;-77
2023/04/19 07:34:57;;;;;;;11.23;4.82;;;14.20;99.90;;;;;;4898328;29;20040;-74
2023/04/19 07:37:23;;;;;;;12.30;4.75;;;14.50;99.90;;;;;;4898773;29;20020;-77
2023/04/19 07:39:49;;;;;;;6.65;4.55;;;14.70;99.90;;;;;;4898115;29;20497;-76
2023/04/19 07:42:15;;;;;;;11.07;5.15;;;14.60;99.90;;;;;;4897080;29;20024;-76
2023/04/19 07:44:40;;;;;;;5.43;3.88;;;14.70;99.90;;;;;;4898275;29;20132;-77
2023/04/19 07:47:06;;;;;;;6.53;4.43;;;14.70;99.90;;;;;;4898372;29;20493;-76
2023/04/19 07:49:33;;;;;;;11.10;5.53;;;14.80;99.90;;;;;;4897965;29;20084;-77
2023/04/19 07:52:02;;;;;;;9.90;4.18;;;14.80;99.90;;;;;;4892228;29;20029;-76
2023/04/19 07:54:29;;;;;;;7.95;4.25;;;14.90;99.90;;;;;;4898352;29;20401;-74
2023/04/19 07:56:56;;;;;;;6.95;4.18;;;14.90;99.90;;;;;;4897516;29;20492;-77
2023/04/19 07:59:22;;;;;;;7.47;4.25;;;15.10;99.90;;;;;;4897638;29;20107;-77
2023/04/19 08:01:48;;;;;;;7.95;4.63;;;15.00;99.90;;;;;;4897366;29;20575;-76
2023/04/19 08:04:16;;;;;;;15.48;5.18;;;15.00;99.90;;;;;;4891158;29;20028;-76
2023/04/19 08:06:42;;;;;;;8.57;4.25;;;15.20;99.90;;;;;;4897545;29;20493;-77
2023/04/19 08:09:08;;;;;;;9.70;4.32;;;15.20;99.90;;;;;;4888557;29;20025;-77
2023/04/19 08:11:34;;;;;;;10.82;4.75;;;15.20;99.90;;;;;;4889732;29;20493;-76
2023/04/19 08:13:59;;;;;;;6.38;3.88;;;15.30;99.90;;;;;;4895751;29;20041;-77
2023/04/19 08:16:26;;;;;;;8.30;4.30;;;15.20;99.90;;;;;;4897644;29;20489;-76
2023/04/19 08:18:52;;;;;;;7.43;4.53;;;15.30;99.90;;;;;;4894578;29;20063;-77
2023/04/19 08:21:18;;;;;;;12.07;4.53;;;15.40;99.90;;;;;;4882967;29;20028;-76
2023/04/19 08:23:44;;;;;;;8.00;4.57;;;15.40;99.90;;;;;;4869843;29;20466;-77
2023/04/19 08:26:10;;;;;;;7.35;3.88;;;15.40;99.90;;;;;;4883371;29;20040;-73
2023/04/19 08:28:36;;;;;;;8.60;4.00;;;15.50;99.90;;;;;;4882531;29;20033;-77
2023/04/19 08:31:06;;;;;;;7.43;4.32;;;15.60;99.90;;;;;;4881055;29;20045;-73
2023/04/19 08:33:33;;;;;;;7.40;4.15;;;15.60;99.90;;;;;;4863137;29;20034;-74
2023/04/19 08:35:58;;;;;;;6.65;3.53;;;15.70;99.90;;;;;;4871285;29;20158;-77
2023/04/19 08:38:24;;;;;;;7.65;3.67;;;15.90;99.90;;;;;;4881824;29;20029;-76
2023/04/19 08:40:54;;;;;;;9.00;4.07;;;16.10;99.90;;;;;;4891922;29;20086;-76
2023/04/19 08:43:20;;;;;;;6.93;4.15;;;16.00;99.90;;;;;;4893189;29;20117;-74
2023/04/19 08:45:50;;;;;;;7.75;3.70;;;16.10;99.90;;;;;;4884886;29;20486;-75
2023/04/19 08:48:17;;;;;;;7.90;4.32;;;16.20;99.90;;;;;;4875918;29;20497;-76
2023/04/19 08:50:47;;;;;;;7.50;3.90;;;16.10;99.90;;;;;;4878271;29;20025;-75
2023/04/19 08:53:15;;;;;;;9.98;3.72;;;15.80;99.90;;;;;;4876570;29;20086;-76
2023/04/19 08:55:42;;;;;;;6.43;4.07;;;15.90;99.90;;;;;;4878150;29;20108;-76
2023/04/19 08:58:08;;;;;;;9.88;4.30;;;15.80;99.90;;;;;;4875736;29;20032;-75
2023/04/19 09:00:37;;;;;;;11.00;3.97;;;15.80;99.90;;;;;;4868011;29;20041;-75
2023/04/19 09:03:06;;;;;;;7.22;4.25;;;15.90;99.90;;;;;;4874102;29;20030;-75
2023/04/19 09:05:32;;;;;;;7.88;4.63;;;15.80;99.90;;;;;;4886000;29;20508;-75
2023/04/19 09:08:23;;;;;;;10.30;4.22;;;15.80;99.90;;;;;;4883015;29;20060;-76
2023/04/19 09:11:00;;;;;;;5.30;3.60;;;16.00;99.90;;;;;;4871112;29;20111;-76
2023/04/19 09:13:27;;;;;;;8.57;5.03;;;16.10;99.90;;;;;;4889217;29;20048;-76
2023/04/19 09:15:55;;;;;;;7.63;4.43;;;16.40;99.90;;;;;;4887606;29;20486;-76
2023/04/19 09:18:23;;;;;;;13.90;3.83;;;16.50;99.90;;;;;;4882165;29;20107;-73
2023/04/19 09:20:55;;;;;;;8.00;4.75;;;16.70;99.90;;;;;;4886400;29;20032;-77
2023/04/19 09:23:26;;;;;;;9.20;4.82;;;17.00;99.90;;;;;;4876512;29;20030;-73
2023/04/19 09:25:56;;;;;;;8.65;4.13;;;16.90;99.90;;;;;;4882642;29;20530;-75
2023/04/19 09:28:23;;;;;;;8.95;4.18;;;17.10;98.80;;;;;;4887044;29;20029;-76
2023/04/19 09:30:49;;;;;;;7.53;4.65;;;16.80;99.90;;;;;;4889862;29;20039;-75
2023/04/19 09:33:39;;;;;;;8.88;4.13;;;16.50;99.90;;;;;;4896007;29;20448;-76
2023/04/19 09:36:07;;;;;;;12.70;3.83;;;16.90;99.90;;;;;;4890256;29;20504;-74
2023/04/19 09:38:49;;;;;;;13.18;4.85;;;17.00;99.90;;;;;;4886996;29;20103;-73
2023/04/19 09:41:16;;;;;;;11.00;4.32;;;16.90;99.90;;;;;;4896283;29;20032;-76
2023/04/19 09:43:42;;;;;;;9.57;3.83;;;16.90;99.70;;;;;;4896577;29;20466;-76
2023/04/19 09:46:08;;;;;;;6.25;3.85;;;16.90;99.90;;;;;;4895414;29;20032;-76
2023/04/19 09:48:35;;;;;;;6.80;3.85;;;17.10;99.90;;;;;;4898383;29;20112;-76
2023/04/19 09:51:01;;;;;;;9.50;4.75;;;17.40;99.90;;;;;;4899619;29;20028;-76
2023/04/19 09:53:29;;;;;;;9.00;5.30;;;17.60;99.90;;;;;;4900494;29;20036;-76
2023/04/19 09:55:55;;;;;;;7.82;4.40;;;17.40;99.90;;;;;;4900453;29;20044;-77
2023/04/19 09:58:21;;;;;;;9.73;3.95;;;17.40;99.90;;;;;;4883690;29;20031;-75
2023/04/19 10:00:49;;;;;;;8.98;4.90;;;17.20;99.90;;;;;;4885603;29;20029;-76
2023/04/19 10:03:16;;;;;;;9.45;4.88;;;17.40;99.90;;;;;;4877631;29;20040;-76
2023/04/19 10:05:43;;;;;;;8.93;4.38;;;17.70;99.90;;;;;;4895653;29;20541;-77
2023/04/19 10:08:11;;;;;;;12.77;3.95;;;17.70;99.90;;;;;;4900072;29;20025;-74
2023/04/19 10:10:39;;;;;;;5.50;3.53;;;18.10;99.90;;;;;;4900096;29;20176;-74
2023/04/19 10:13:12;;;;;;;5.88;3.72;;;17.90;96.90;;;;;;4900081;29;20032;-74
2023/04/19 10:15:40;;;;;;;7.57;4.03;;;18.10;99.90;;;;;;4886039;29;20067;-75
2023/04/19 10:18:07;;;;;;;7.28;3.80;;;17.50;99.90;;;;;;4900721;29;20021;-74
2023/04/19 10:20:42;;;;;;;10.25;4.25;;;17.60;99.90;;;;;;4886426;29;20569;-74
2023/04/19 10:23:08;;;;;;;7.38;4.15;;;17.80;99.90;;;;;;4899888;29;20037;-76
2023/04/19 10:25:37;;;;;;;6.07;3.83;;;17.50;99.90;;;;;;4882160;29;20477;-74
2023/04/19 10:28:03;;;;;;;7.80;3.88;;;17.60;98.60;;;;;;4900001;29;20418;-74
2023/04/19 10:30:29;;;;;;;12.90;3.78;;;17.30;99.40;;;;;;4899979;29;20052;-72
2023/04/19 10:32:57;;;;;;;8.02;4.28;;;17.20;99.90;;;;;;4897927;29;20492;-75
2023/04/19 10:35:37;;;;;;;8.85;4.55;;;17.10;99.90;;;;;;4895682;29;20037;-73
2023/04/19 10:38:06;;;;;;;7.20;4.15;;;17.20;99.90;;;;;;4899463;29;20064;-75
2023/04/19 10:40:50;;;;;;;7.10;3.88;;;17.10;99.90;;;;;;4898378;29;20039;-74
2023/04/19 10:43:18;;;;;;;13.50;5.03;;;17.00;99.90;;;;;;4899874;29;20381;-74
2023/04/19 10:45:45;;;;;;;5.82;4.00;;;17.00;99.90;;;;;;4899126;29;20087;-73
2023/04/19 10:48:32;;;;;;;7.40;3.83;;;17.00;99.90;;;;;;4894307;29;20024;-76
2023/04/19 10:51:01;;;;;;;8.23;4.80;;;17.00;99.90;;;;;;4899143;29;20094;-75
2023/04/19 10:53:47;;;;;;;9.90;4.15;;;16.90;99.90;;;;;;4899070;29;20024;-75
2023/04/19 10:56:15;;;;;;;8.00;3.95;;;16.90;99.90;;;;;;4899319;29;20040;-71
2023/04/19 10:59:21;;;;;;;7.43;4.32;;;16.90;99.50;;;;;;4897587;29;20027;-74
2023/04/19 11:01:54;;;;;;;11.93;5.30;;;16.90;99.90;;;;;;4891029;29;20458;-72
2023/04/19 11:04:51;;;;;;;9.23;4.55;;;17.20;99.90;;;;;;4898719;29;20029;-74
2023/04/19 11:07:20;;;;;;;8.52;3.70;;;17.40;99.90;;;;;;4899181;29;20081;-71
2023/04/19 11:09:47;;;;;;;10.57;4.68;;;17.20;99.90;;;;;;4899248;29;20119;-74
2023/04/19 11:12:14;;;;;;;11.77;4.63;;;17.30;99.90;;;;;;4896758;29;20426;-74
2023/04/19 11:14:45;;;;;;;7.43;3.83;;;17.30;99.90;;;;;;4894292;29;20048;-75
2023/04/19 11:17:30;;;;;;;8.25;4.18;;;17.30;99.90;;;;;;4898646;29;20024;-74
2023/04/19 11:19:57;;;;;;;8.40;4.13;;;17.40;99.90;;;;;;4898747;29;20045;-73
2023/04/19 11:22:39;;;;;;;8.63;3.47;;;17.70;99.90;;;;;;4898937;29;20537;-73
2023/04/19 11:25:12;;;;;;;8.35;3.90;;;17.20;99.90;;;;;;4898383;29;20062;-72
2023/04/19 11:27:40;;;;;;;8.25;3.65;;;17.20;99.90;;;;;;4898618;29;20426;-73
2023/04/19 11:30:10;;;;;;;8.07;4.13;;;17.30;99.90;;;;;;4897283;29;20481;-72
2023/04/19 11:32:43;;;;;;;8.68;4.90;;;17.20;99.90;;;;;;4884946;29;20037;-74
2023/04/19 11:35:09;;;;;;;9.75;4.18;;;17.20;99.90;;;;;;4895280;29;20156;-75
2023/04/19 11:37:36;;;;;;;8.38;4.05;;;17.10;99.90;;;;;;4898314;29;20037;-75
2023/04/19 11:40:04;;;;;;;9.82;5.10;;;17.10;99.90;;;;;;4898647;29;20374;-75
2023/04/19 11:42:30;;;;;;;7.75;3.65;;;17.00;99.90;;;;;;4898221;29;20016;-75
2023/04/19 11:44:57;;;;;;;4.20;3.17;;;17.00;99.90;;;;;;4881948;29;20096;-76
2023/04/19 11:47:24;;;;;;;9.57;3.88;;;16.60;99.90;;;;;;4898584;29;20470;-75
2023/04/19 11:49:49;;;;;;;11.73;4.35;;;16.50;99.90;;;;;;4896229;29;20493;-74
2023/04/19 11:52:25;;;;;;;9.05;4.53;;;16.10;99.90;;;;;;4898453;29;20068;-72
2023/04/19 11:54:52;;;;;;;6.97;4.20;;;16.10;99.90;;;;;;4897498;29;20520;-72
2023/04/19 11:57:30;;;;;;;12.00;4.90;;;15.90;99.90;;;;;;4897944;29;20426;-72
2023/04/19 12:00:11;;;;;;;11.32;4.93;;;15.90;99.90;;;;;;4897882;29;20487;-74
2023/04/19 12:02:43;;;;;;;9.15;5.22;;;16.00;99.90;;;;;;4887138;29;20123;-75
2023/04/19 12:05:14;;;;;;;9.13;4.93;;;15.90;99.90;;;;;;4897647;29;20040;-75
2023/04/19 12:08:04;;;;;;;10.18;5.68;;;15.90;99.90;;;;;;4897401;29;20069;-74
2023/04/19 12:10:31;;;;;;;7.97;3.97;;;15.90;99.90;;;;;;4871112;29;20072;-75
2023/04/19 12:12:57;;;;;;;7.47;4.20;;;16.10;99.90;;;;;;4897564;29;20465;-74
2023/04/19 12:15:39;;;;;;;9.07;3.80;;;16.10;99.90;;;;;;4896522;29;20040;-74
2023/04/19 12:18:05;;;;;;;8.50;3.95;;;16.10;99.90;;;;;;4888458;29;20093;-75
2023/04/19 12:20:34;;;;;;;11.65;5.80;;;16.40;99.90;;;;;;4897630;29;20057;-74
2023/04/19 12:23:01;;;;;;;7.65;4.75;;;16.40;99.90;;;;;;4896733;29;20053;-75
2023/04/19 12:25:31;;;;;;;12.68;6.75;;;16.60;99.90;;;;;;4897754;29;20028;-74
2023/04/19 12:27:59;;;;;;;14.65;6.57;;;16.50;99.90;;;;;;4897617;29;20032;-75
2023/04/19 12:30:25;;;;;;;6.97;4.43;;;16.50;99.90;;;;;;4895694;29;20434;-74
2023/04/19 12:32:54;;;;;;;9.57;4.40;;;16.50;99.90;;;;;;4897296;29;20032;-75
2023/04/19 12:35:24;;;;;;;5.93;3.45;;;16.40;99.90;;;;;;4897525;29;20072;-75
2023/04/19 12:37:51;;;;;;;7.53;3.97;;;16.40;99.60;;;;;;4897433;29;20453;-75
2023/04/19 12:40:17;;;;;;;7.13;3.78;;;16.40;99.90;;;;;;4897002;29;20023;-74